createdAt,value
2022-08-26T00:01:56.648Z,97.10
2022-08-26T00:04:25.655Z,97.10
2022-08-26T00:06:54.917Z,97.10
2022-08-26T00:09:24.798Z,97.20
2022-08-26T00:11:53.943Z,97.20
2022-08-26T00:14:21.956Z,97.20
2022-08-26T00:16:49.316Z,97.20
2022-08-26T00:19:19.575Z,97.20
2022-08-26T00:21:48.770Z,97.40
2022-08-26T00:24:19.196Z,97.40
2022-08-26T00:26:47.843Z,97.40
2022-08-26T00:29:15.755Z,97.50
2022-08-26T00:31:45.068Z,97.50
2022-08-26T00:34:15.410Z,97.50
2022-08-26T00:36:43.650Z,97.60
2022-08-26T00:39:11.684Z,97.60
2022-08-26T00:41:40.819Z,97.60
2022-08-26T00:44:12.118Z,97.70
2022-08-26T00:46:46.904Z,97.70
2022-08-26T00:49:23.211Z,97.80
2022-08-26T00:51:57.018Z,97.70
2022-08-26T00:54:27.406Z,97.80
2022-08-26T00:57:16.034Z,97.80
2022-08-26T00:59:56.769Z,98.00
2022-08-26T01:02:24.775Z,98.00
2022-08-26T01:04:56.578Z,98.00
2022-08-26T01:07:27.426Z,98.30
2022-08-26T01:09:56.254Z,97.90
2022-08-26T01:12:26.592Z,98.00
2022-08-26T01:14:54.987Z,97.90
2022-08-26T01:17:23.155Z,98.30
2022-08-26T01:19:58.091Z,98.40
2022-08-26T01:22:52.432Z,98.30
2022-08-26T01:25:21.098Z,98.30
2022-08-26T01:27:49.285Z,98.40
2022-08-26T01:30:19.118Z,98.50
2022-08-26T01:32:48.121Z,98.50
2022-08-26T01:35:15.517Z,98.50
2022-08-26T01:37:43.182Z,98.50
2022-08-26T01:40:16.947Z,98.50
2022-08-26T01:42:46.607Z,98.60
2022-08-26T01:45:25.373Z,98.50
2022-08-26T01:47:57.030Z,98.50
2022-08-26T01:50:32.620Z,98.50
2022-08-26T01:53:03.675Z,98.40
2022-08-26T01:55:34.138Z,98.50
2022-08-26T01:58:05.643Z,98.60
2022-08-26T02:00:34.989Z,98.70
2022-08-26T02:03:17.091Z,98.70
2022-08-26T02:06:10.323Z,98.60
2022-08-26T02:08:46.837Z,98.60
2022-08-26T02:14:05.554Z,98.80
2022-08-26T02:16:37.815Z,98.90
2022-08-26T02:19:17.273Z,98.90
2022-08-26T02:21:51.260Z,98.90
2022-08-26T02:24:45.766Z,99.00
2022-08-26T02:27:14.971Z,99.00
2022-08-26T02:29:46.937Z,99.40
2022-08-26T02:32:18.489Z,99.10
2022-08-26T02:34:46.986Z,99.20
2022-08-26T02:37:15.073Z,99.20
2022-08-26T02:39:45.497Z,99.20
2022-08-26T02:42:15.337Z,99.20
2022-08-26T02:44:42.821Z,99.30
2022-08-26T02:47:14.569Z,99.30
2022-08-26T02:49:47.203Z,99.10
2022-08-26T02:52:15.118Z,99.20
2022-08-26T02:54:42.665Z,99.20
2022-08-26T02:57:11.247Z,99.20
2022-08-26T02:59:39.955Z,99.20
2022-08-26T03:02:07.863Z,99.20
2022-08-26T03:04:35.328Z,99.20
2022-08-26T03:07:03.320Z,99.30
2022-08-26T03:09:30.675Z,99.40
2022-08-26T03:11:58.427Z,99.40
2022-08-26T03:14:26.014Z,99.50
2022-08-26T03:16:54.844Z,99.50
2022-08-26T03:19:24.823Z,99.60
2022-08-26T03:21:53.684Z,99.60
2022-08-26T03:24:26.262Z,99.50
2022-08-26T03:26:53.556Z,99.60
2022-08-26T03:29:40.609Z,99.50
2022-08-26T03:32:09.224Z,99.50
2022-08-26T03:34:38.136Z,99.40
2022-08-26T03:37:06.031Z,99.50
2022-08-26T03:39:33.600Z,99.50
2022-08-26T03:42:01.077Z,99.60
2022-08-26T03:44:28.845Z,99.80
2022-08-26T03:46:56.442Z,99.80
2022-08-26T03:49:23.893Z,99.90
2022-08-26T03:51:51.666Z,99.90
2022-08-26T03:54:19.196Z,99.90
2022-08-26T03:56:46.726Z,99.90
2022-08-26T03:59:14.079Z,99.90
2022-08-26T04:01:41.815Z,99.90
2022-08-26T04:04:09.374Z,99.90
2022-08-26T04:06:44.997Z,99.80
2022-08-26T04:09:15.532Z,99.90
2022-08-26T04:11:44.169Z,99.90
2022-08-26T04:14:17.487Z,99.80
2022-08-26T04:16:48.602Z,99.70
2022-08-26T04:19:17.023Z,99.50
2022-08-26T04:21:45.582Z,99.40
2022-08-26T04:24:15.724Z,99.30
2022-08-26T04:26:43.831Z,99.40
2022-08-26T04:29:18.196Z,99.30
2022-08-26T04:31:48.397Z,99.50
2022-08-26T04:34:16.439Z,99.70
2022-08-26T04:36:44.538Z,99.70
2022-08-26T04:39:14.275Z,99.80
2022-08-26T04:41:41.587Z,99.50
2022-08-26T04:44:09.064Z,99.10
2022-08-26T04:46:39.815Z,99.00
2022-08-26T04:49:12.110Z,98.90
2022-08-26T04:51:40.082Z,98.70
2022-08-26T04:54:07.912Z,98.60
2022-08-26T04:56:38.100Z,97.90
2022-08-26T04:59:08.274Z,97.30
2022-08-26T05:01:50.222Z,96.80
2022-08-26T05:04:19.273Z,96.50
2022-08-26T05:06:48.596Z,96.30
2022-08-26T05:09:18.806Z,96.10
2022-08-26T05:11:48.599Z,95.90
2022-08-26T05:14:21.146Z,95.60
2022-08-26T05:16:49.813Z,95.30
2022-08-26T05:19:18.834Z,94.90
2022-08-26T05:21:48.462Z,94.60
2022-08-26T05:24:17.039Z,94.20
2022-08-26T05:26:46.877Z,94.10
2022-08-26T05:29:14.248Z,93.90
2022-08-26T05:31:42.059Z,93.80
2022-08-26T05:34:10.103Z,93.60
2022-08-26T05:36:37.798Z,93.40
2022-08-26T05:39:06.985Z,93.10
2022-08-26T05:41:39.083Z,92.90
2022-08-26T05:44:09.971Z,92.50
2022-08-26T05:46:39.125Z,92.30
2022-08-26T05:49:12.305Z,92.20
2022-08-26T05:51:45.032Z,91.90
2022-08-26T05:54:13.585Z,91.70
2022-08-26T05:56:41.376Z,91.10
2022-08-26T05:59:14.338Z,90.90
2022-08-26T06:01:43.783Z,90.40
2022-08-26T06:04:11.994Z,90.20
2022-08-26T06:06:45.039Z,90.10
2022-08-26T06:09:31.427Z,89.70
2022-08-26T06:12:01.796Z,89.30
2022-08-26T06:14:30.529Z,88.80
2022-08-26T06:16:57.988Z,88.40
2022-08-26T06:19:25.833Z,87.50
2022-08-26T06:22:23.368Z,87.00
2022-08-26T06:25:09.937Z,86.70
2022-08-26T06:27:37.368Z,86.10
2022-08-26T06:30:05.251Z,85.80
2022-08-26T06:32:33.650Z,85.10
2022-08-26T06:35:01.000Z,84.80
2022-08-26T06:37:28.896Z,84.30
2022-08-26T06:39:56.574Z,84.00
2022-08-26T06:42:25.164Z,83.60
2022-08-26T06:44:52.604Z,83.50
2022-08-26T06:47:20.608Z,82.90
2022-08-26T06:49:48.292Z,83.40
2022-08-26T06:52:22.496Z,83.90
2022-08-26T06:54:51.847Z,85.00
2022-08-26T06:57:20.382Z,85.80
2022-08-26T06:59:48.705Z,86.00
2022-08-26T07:02:18.695Z,86.40
2022-08-26T07:04:47.865Z,86.30
2022-08-26T07:07:15.721Z,85.30
2022-08-26T07:09:43.246Z,84.40
2022-08-26T07:12:10.737Z,83.60
2022-08-26T07:14:38.420Z,83.50
2022-08-26T07:17:08.508Z,84.40
2022-08-26T07:19:38.440Z,84.00
2022-08-26T07:22:07.311Z,83.40
2022-08-26T07:24:39.120Z,82.90
2022-08-26T07:27:10.032Z,83.50
2022-08-26T07:29:39.499Z,83.40
2022-08-26T07:32:07.965Z,82.50
2022-08-26T07:34:37.773Z,82.00
2022-08-26T07:37:08.782Z,81.30
2022-08-26T07:39:37.315Z,80.80
2022-08-26T07:42:07.307Z,80.80
2022-08-26T07:44:37.159Z,80.90
2022-08-26T07:47:10.489Z,80.40
2022-08-26T07:49:55.775Z,79.70
2022-08-26T07:52:27.013Z,78.90
2022-08-26T07:54:59.749Z,78.20
2022-08-26T07:57:28.321Z,78.40
2022-08-26T07:59:56.053Z,78.20
2022-08-26T08:02:25.452Z,77.30
2022-08-26T08:04:53.235Z,77.00
2022-08-26T08:07:38.283Z,76.40
2022-08-26T08:10:11.423Z,76.30
2022-08-26T08:12:40.361Z,75.80
2022-08-26T08:15:09.863Z,75.50
2022-08-26T08:17:37.269Z,74.80
2022-08-26T08:20:05.802Z,74.20
2022-08-26T08:22:33.175Z,73.50
2022-08-26T08:25:00.481Z,74.10
2022-08-26T08:27:32.930Z,74.10
2022-08-26T08:30:01.038Z,73.70
2022-08-26T08:32:29.980Z,73.30
2022-08-26T08:34:58.742Z,72.80
2022-08-26T08:37:26.446Z,72.60
2022-08-26T08:39:54.261Z,70.70
2022-08-26T08:43:19.372Z,69.20
2022-08-26T08:45:55.036Z,67.80
2022-08-26T08:48:29.501Z,67.40
2022-08-26T08:51:18.885Z,66.20
2022-08-26T08:53:49.592Z,64.80
2022-08-26T08:56:32.042Z,64.60
2022-08-26T08:58:59.578Z,64.10
2022-08-26T09:01:44.972Z,63.50
2022-08-26T09:04:17.208Z,63.30
2022-08-26T09:06:47.249Z,62.90
2022-08-26T09:09:23.857Z,62.10
2022-08-26T09:11:51.729Z,62.80
2022-08-26T09:14:19.121Z,62.30
2022-08-26T09:16:56.731Z,61.00
2022-08-26T09:19:40.644Z,62.00
2022-08-26T09:22:09.623Z,62.00
2022-08-26T09:24:41.690Z,62.40
2022-08-26T09:27:11.495Z,61.80
2022-08-26T09:29:44.544Z,62.10
2022-08-26T09:32:21.871Z,61.90
2022-08-26T09:34:57.601Z,61.60
2022-08-26T09:40:29.629Z,62.40
2022-08-26T09:43:22.896Z,61.00
2022-08-26T09:45:59.546Z,60.20
2022-08-26T09:48:36.624Z,60.30
2022-08-26T09:51:07.318Z,59.50
2022-08-26T09:53:50.350Z,59.20
2022-08-26T09:56:28.074Z,59.30
2022-08-26T09:58:56.894Z,59.10
2022-08-26T10:01:24.234Z,59.10
2022-08-26T10:03:52.535Z,58.50
2022-08-26T10:06:28.284Z,58.40
2022-08-26T10:08:59.171Z,58.20
2022-08-26T10:11:51.045Z,57.90
2022-08-26T10:14:25.095Z,57.90
2022-08-26T10:17:08.943Z,57.60
2022-08-26T10:19:56.868Z,57.30
2022-08-26T10:22:36.822Z,56.80
2022-08-26T10:25:11.910Z,56.60
2022-08-26T10:27:53.588Z,56.10
2022-08-26T10:30:25.748Z,56.00
2022-08-26T10:33:18.142Z,54.80
2022-08-26T10:35:58.652Z,54.50
2022-08-26T10:38:40.210Z,51.70
2022-08-26T10:41:16.941Z,50.90
2022-08-26T10:43:58.555Z,51.00
2022-08-26T10:46:34.862Z,49.60
2022-08-26T10:49:09.639Z,49.10
2022-08-26T10:52:01.206Z,48.80
2022-08-26T10:54:37.207Z,48.70
2022-08-26T10:57:23.188Z,48.20
2022-08-26T11:00:22.667Z,48.20
2022-08-26T11:02:54.009Z,48.00
2022-08-26T11:05:26.162Z,47.30
2022-08-26T11:08:20.900Z,47.50
2022-08-26T11:10:56.771Z,47.10
2022-08-26T11:14:05.982Z,46.80
2022-08-26T11:16:45.288Z,46.50
2022-08-26T11:19:58.962Z,46.50
2022-08-26T11:22:33.756Z,46.10
2022-08-26T11:25:07.329Z,46.30
2022-08-26T11:27:37.071Z,46.20
2022-08-26T11:30:18.453Z,46.50
2022-08-26T11:32:55.500Z,46.20
2022-08-26T11:35:25.488Z,46.70
2022-08-26T11:38:01.979Z,47.50
2022-08-26T11:40:35.326Z,47.10
2022-08-26T11:43:11.497Z,47.10
2022-08-26T11:45:45.647Z,47.40
2022-08-26T11:48:28.299Z,47.60
2022-08-26T11:51:00.559Z,46.70
2022-08-26T11:53:30.231Z,46.30
2022-08-26T11:55:59.307Z,45.50
2022-08-26T11:58:28.074Z,44.20
2022-08-26T12:01:03.673Z,43.50
2022-08-26T12:03:44.817Z,43.70
2022-08-26T12:06:20.624Z,44.40
2022-08-26T12:08:48.412Z,43.70
2022-08-26T12:11:34.516Z,44.70
2022-08-26T12:14:04.504Z,42.90
2022-08-26T12:16:37.629Z,43.40
2022-08-26T12:19:41.647Z,44.00
2022-08-26T12:22:31.534Z,45.00
2022-08-26T12:25:01.263Z,45.00
2022-08-26T12:27:29.838Z,44.30
2022-08-26T12:30:10.034Z,44.50
2022-08-26T12:32:57.763Z,44.20
2022-08-26T12:35:44.960Z,44.00
2022-08-26T12:38:12.289Z,44.40
2022-08-26T12:40:45.642Z,44.40
2022-08-26T12:43:34.327Z,43.90
2022-08-26T12:46:01.881Z,44.20
2022-08-26T12:48:32.570Z,44.00
2022-08-26T12:51:00.709Z,43.90
2022-08-26T12:53:30.979Z,44.40
2022-08-26T12:56:03.530Z,44.10
2022-08-26T12:58:32.221Z,43.50
2022-08-26T13:01:08.939Z,43.50
2022-08-26T13:03:38.801Z,43.80
2022-08-26T13:06:22.373Z,44.10
2022-08-26T13:08:55.966Z,43.80
2022-08-26T13:11:31.497Z,44.00
2022-08-26T13:14:09.907Z,43.20
2022-08-26T13:16:39.522Z,43.50
2022-08-26T13:19:10.587Z,43.30
2022-08-26T13:21:43.879Z,43.00
2022-08-26T13:24:15.270Z,43.20
2022-08-26T13:26:44.719Z,43.40
2022-08-26T13:29:13.256Z,43.50
2022-08-26T13:31:42.765Z,43.50
2022-08-26T13:34:15.651Z,44.40
2022-08-26T13:36:44.748Z,43.40
2022-08-26T13:39:12.730Z,43.60
2022-08-26T13:41:40.316Z,43.30
2022-08-26T13:44:08.339Z,43.00
2022-08-26T13:46:36.274Z,42.80
2022-08-26T13:49:03.943Z,43.00
2022-08-26T13:51:31.776Z,43.10
2022-08-26T13:53:59.713Z,43.50
2022-08-26T13:56:29.551Z,43.70
2022-08-26T13:58:58.259Z,43.60
2022-08-26T14:01:26.955Z,43.10
2022-08-26T14:03:54.523Z,43.30
2022-08-26T14:06:22.253Z,42.70
2022-08-26T14:08:49.702Z,42.70
2022-08-26T14:11:18.330Z,43.00
2022-08-26T14:13:45.590Z,42.80
2022-08-26T14:16:21.997Z,42.50
2022-08-26T14:18:50.938Z,42.40
2022-08-26T14:21:18.715Z,43.00
2022-08-26T14:23:46.215Z,42.80
2022-08-26T14:26:28.076Z,42.60
2022-08-26T14:28:58.910Z,42.70
2022-08-26T14:31:29.275Z,42.70
2022-08-26T14:34:04.830Z,42.60
2022-08-26T14:36:32.741Z,42.50
2022-08-26T14:39:04.546Z,42.70
2022-08-26T14:41:33.212Z,42.20
2022-08-26T14:44:05.659Z,42.00
2022-08-26T14:46:37.542Z,42.20
2022-08-26T14:49:08.477Z,42.50
2022-08-26T14:51:37.553Z,42.70
2022-08-26T14:54:13.653Z,42.80
2022-08-26T14:56:46.816Z,43.00
2022-08-26T14:59:17.882Z,43.00
2022-08-26T15:01:45.808Z,43.30
2022-08-26T15:04:14.130Z,43.50
2022-08-26T15:06:41.544Z,43.60
2022-08-26T15:09:09.219Z,43.90
2022-08-26T15:11:37.004Z,43.70
2022-08-26T15:14:04.580Z,43.50
2022-08-26T15:16:31.929Z,43.50
2022-08-26T15:19:01.321Z,43.50
2022-08-26T15:21:28.599Z,43.00
2022-08-26T15:23:56.328Z,43.30
2022-08-26T15:26:24.355Z,43.30
2022-08-26T15:28:52.271Z,43.50
2022-08-26T15:31:24.349Z,43.30
2022-08-26T15:33:52.535Z,43.40
2022-08-26T15:36:19.784Z,43.50
2022-08-26T15:38:47.103Z,43.50
2022-08-26T15:41:14.458Z,43.60
2022-08-26T15:43:41.846Z,43.90
2022-08-26T15:46:13.087Z,44.30
2022-08-26T15:48:41.316Z,44.50
2022-08-26T15:51:26.053Z,44.50
2022-08-26T15:53:56.226Z,44.40
2022-08-26T15:56:28.407Z,44.70
2022-08-26T15:58:56.423Z,44.50
2022-08-26T16:01:27.456Z,44.80
2022-08-26T16:03:56.664Z,44.70
2022-08-26T16:06:27.523Z,44.40
2022-08-26T16:08:56.419Z,44.40
2022-08-26T16:11:25.613Z,44.40
2022-08-26T16:13:53.060Z,44.40
2022-08-26T16:16:21.465Z,44.80
2022-08-26T16:18:49.560Z,44.90
2022-08-26T16:21:19.472Z,45.00
2022-08-26T16:23:47.317Z,45.10
2022-08-26T16:26:18.087Z,45.20
2022-08-26T16:28:45.836Z,46.10
2022-08-26T16:31:15.210Z,45.60
2022-08-26T16:33:42.643Z,45.70
2022-08-26T16:36:10.899Z,45.70
2022-08-26T16:38:39.331Z,45.70
2022-08-26T16:41:08.343Z,46.00
2022-08-26T16:43:36.268Z,46.40
2022-08-26T16:46:07.121Z,46.90
2022-08-26T16:48:34.960Z,47.30
2022-08-26T16:51:02.427Z,47.50
2022-08-26T16:53:29.717Z,47.80
2022-08-26T16:55:57.189Z,48.20
2022-08-26T16:58:24.464Z,48.60
2022-08-26T17:00:51.896Z,49.00
2022-08-26T17:03:19.609Z,49.20
2022-08-26T17:05:47.001Z,49.50
2022-08-26T17:08:27.571Z,49.70
2022-08-26T17:10:58.873Z,50.00
2022-08-26T17:13:35.816Z,50.30
2022-08-26T17:19:11.082Z,50.90
2022-08-26T17:21:39.770Z,51.40
2022-08-26T17:24:07.155Z,51.80
2022-08-26T17:26:35.147Z,52.20
2022-08-26T17:29:02.444Z,52.50
2022-08-26T17:31:29.991Z,53.00
2022-08-26T17:33:57.584Z,53.10
2022-08-26T17:36:28.015Z,53.30
2022-08-26T17:38:57.175Z,53.50
2022-08-26T17:41:25.651Z,53.70
2022-08-26T17:43:53.157Z,54.00
2022-08-26T17:46:20.893Z,54.40
2022-08-26T17:48:48.519Z,54.70
2022-08-26T17:51:19.085Z,55.00
2022-08-26T17:53:47.936Z,55.50
2022-08-26T17:56:18.671Z,56.20
2022-08-26T17:58:51.137Z,56.70
2022-08-26T18:01:21.193Z,56.80
2022-08-26T18:03:49.503Z,57.40
2022-08-26T18:06:17.134Z,57.80
2022-08-26T18:08:45.158Z,58.10
2022-08-26T18:11:15.987Z,58.60
2022-08-26T18:13:47.035Z,59.20
2022-08-26T18:16:17.186Z,59.40
2022-08-26T18:18:45.006Z,60.00
2022-08-26T18:21:18.505Z,60.50
2022-08-26T18:23:47.553Z,61.20
2022-08-26T18:26:20.859Z,62.10
2022-08-26T18:28:48.739Z,62.70
2022-08-26T18:31:16.526Z,62.30
2022-08-26T18:33:44.085Z,63.00
2022-08-26T18:36:20.548Z,63.70
2022-08-26T18:38:50.464Z,64.30
2022-08-26T18:41:20.664Z,64.40
2022-08-26T18:43:50.503Z,64.90
2022-08-26T18:46:19.984Z,65.10
2022-08-26T18:48:49.095Z,65.20
2022-08-26T18:51:22.415Z,65.20
2022-08-26T18:53:50.473Z,65.50
2022-08-26T18:56:18.749Z,65.70
2022-08-26T18:58:46.453Z,65.80
2022-08-26T19:01:15.121Z,66.40
2022-08-26T19:03:42.871Z,67.20
2022-08-26T19:06:17.960Z,67.60
2022-08-26T19:08:46.113Z,67.90
2022-08-26T19:11:31.240Z,67.70
2022-08-26T19:13:59.837Z,67.50
2022-08-26T19:16:29.021Z,67.80
2022-08-26T19:18:58.313Z,68.20
2022-08-26T19:21:25.680Z,68.40
2022-08-26T19:24:00.105Z,68.50
2022-08-26T19:26:29.309Z,68.80
2022-08-26T19:28:57.553Z,69.20
2022-08-26T19:31:25.099Z,69.30
2022-08-26T19:33:52.856Z,69.40
2022-08-26T19:36:23.643Z,69.60
2022-08-26T19:38:51.622Z,69.50
2022-08-26T19:41:24.555Z,69.50
2022-08-26T19:43:58.586Z,69.90
2022-08-26T19:46:26.646Z,69.80
2022-08-26T19:48:55.749Z,69.60
2022-08-26T19:51:26.158Z,70.10
2022-08-26T19:53:55.394Z,70.40
2022-08-26T19:56:23.152Z,70.30
2022-08-26T19:58:51.246Z,71.60
2022-08-26T20:01:19.242Z,71.60
2022-08-26T20:03:47.202Z,71.90
2022-08-26T20:06:16.372Z,72.10
2022-08-26T20:08:44.393Z,72.30
2022-08-26T20:11:15.171Z,72.50
2022-08-26T20:13:43.676Z,73.10
2022-08-26T20:16:11.976Z,73.30
2022-08-26T20:19:00.707Z,73.80
2022-08-26T20:21:30.464Z,74.00
2022-08-26T20:24:04.659Z,74.40
2022-08-26T20:26:36.425Z,74.80
2022-08-26T20:29:05.992Z,75.50
2022-08-26T20:31:35.372Z,75.40
2022-08-26T20:34:04.308Z,74.90
2022-08-26T20:36:32.310Z,75.00
2022-08-26T20:38:59.875Z,75.40
2022-08-26T20:41:28.759Z,75.70
2022-08-26T20:43:57.153Z,75.90
2022-08-26T20:46:25.514Z,76.10
2022-08-26T20:48:53.755Z,77.40
2022-08-26T20:51:23.498Z,77.00
2022-08-26T20:53:51.247Z,77.30
2022-08-26T20:56:26.388Z,77.60
2022-08-26T20:58:57.107Z,78.10
2022-08-26T21:01:30.447Z,78.70
2022-08-26T21:03:57.877Z,78.80
2022-08-26T21:06:25.550Z,79.00
2022-08-26T21:08:54.524Z,79.10
2022-08-26T21:11:22.817Z,79.50
2022-08-26T21:14:15.922Z,80.80
2022-08-26T21:16:39.775Z,80.40
2022-08-26T21:19:10.104Z,80.80
2022-08-26T21:21:38.198Z,81.40
2022-08-26T21:24:06.446Z,81.70
2022-08-26T21:26:34.063Z,82.00
2022-08-26T21:29:02.682Z,82.20
2022-08-26T21:31:32.156Z,82.50
2022-08-26T21:33:59.731Z,82.70
2022-08-26T21:36:27.254Z,83.10
2022-08-26T21:38:59.401Z,83.50
2022-08-26T21:41:28.275Z,84.00
2022-08-26T21:43:59.260Z,84.20
2022-08-26T21:46:29.325Z,84.50
2022-08-26T21:49:00.393Z,84.70
2022-08-26T21:51:30.913Z,85.00
2022-08-26T21:54:00.037Z,85.30
2022-08-26T21:56:31.878Z,85.80
2022-08-26T21:58:59.846Z,86.10
2022-08-26T22:01:32.427Z,86.10
2022-08-26T22:04:00.159Z,86.30
2022-08-26T22:06:29.779Z,86.00
2022-08-26T22:08:57.774Z,85.90
2022-08-26T22:11:27.405Z,85.90
2022-08-26T22:13:56.862Z,85.80
2022-08-26T22:16:26.814Z,85.80
2022-08-26T22:18:55.259Z,85.60
2022-08-26T22:21:25.261Z,85.50
2022-08-26T22:23:57.928Z,86.00
2022-08-26T22:26:30.303Z,85.50
2022-08-26T22:28:59.542Z,84.10
2022-08-26T22:31:37.647Z,83.50
2022-08-26T22:34:09.014Z,82.70
2022-08-26T22:36:44.002Z,81.70
2022-08-26T22:39:14.259Z,81.40
2022-08-26T22:41:42.984Z,81.00
2022-08-26T22:44:11.959Z,80.70
2022-08-26T22:46:41.045Z,80.10
2022-08-26T22:49:10.780Z,79.80
2022-08-26T22:51:38.465Z,79.70
2022-08-26T22:54:06.383Z,79.40
2022-08-26T22:56:34.908Z,79.20
2022-08-26T22:59:02.345Z,79.20
2022-08-26T23:01:29.791Z,79.20
2022-08-26T23:03:57.111Z,79.10
2022-08-26T23:06:24.517Z,79.00
2022-08-26T23:08:53.086Z,79.20
2022-08-26T23:11:20.761Z,79.40
2022-08-26T23:13:48.457Z,79.20
2022-08-26T23:16:15.833Z,79.20
2022-08-26T23:18:43.206Z,79.10
2022-08-26T23:21:10.763Z,78.70
2022-08-26T23:23:38.444Z,78.50
2022-08-26T23:26:07.699Z,78.90
2022-08-26T23:28:38.525Z,79.30
2022-08-26T23:31:06.795Z,79.80
2022-08-26T23:33:53.232Z,79.80
2022-08-26T23:36:22.993Z,80.00
2022-08-26T23:38:52.801Z,80.00
2022-08-26T23:41:23.494Z,80.20
2022-08-26T23:43:51.734Z,80.50
2022-08-26T23:46:19.905Z,80.70
2022-08-26T23:48:47.579Z,80.90
2022-08-26T23:51:33.924Z,81.10
2022-08-26T23:54:01.267Z,81.30
2022-08-26T23:56:29.241Z,81.60
2022-08-26T23:58:56.901Z,81.90
